Time;durP1;ratioP1;P1;durP2;ratioP2;P2;SDS_P1;SDS_P2;PMS_P1;PMS_P2;Temp;Humidity;BMP_temperature;BMP_pressure;BME280_temperature;BME280_humidity;BME280_pressure;Samples;Min_cycle;Max_cycle;Signal;HPM_P1;HPM_P2
2024/04/17 00:01:41;;;;;;;12.35;2.72;;;;;;;6.12;67.86;100884.97;5365343;26;20498;-48
2024/04/17 00:04:08;;;;;;;17.55;3.45;;;;;;;6.13;68.39;100894.59;5364776;26;20006;-52
2024/04/17 00:06:34;;;;;;;12.02;2.60;;;;;;;6.12;68.77;100895.56;5363702;26;20454;-51
2024/04/17 00:09:00;;;;;;;13.35;2.70;;;;;;;6.21;67.56;100876.38;5356830;26;20435;-58
2024/04/17 00:11:26;;;;;;;13.10;3.08;;;;;;;6.27;66.85;100881.25;5356183;26;20403;-55
2024/04/17 00:13:52;;;;;;;15.25;3.60;;;;;;;6.17;68.45;100880.22;5349974;26;20004;-53
2024/04/17 00:16:18;;;;;;;15.70;2.75;;;;;;;6.04;68.65;100885.50;5293899;26;20007;-53
2024/04/17 00:18:43;;;;;;;12.30;2.85;;;;;;;6.19;67.99;100879.13;5368119;26;20044;-50
2024/04/17 00:21:09;;;;;;;13.73;3.30;;;;;;;6.16;68.01;100874.06;5359597;26;20015;-50
2024/04/17 00:23:35;;;;;;;16.02;4.07;;;;;;;6.30;67.61;100873.97;5365751;26;20004;-50
2024/04/17 00:26:01;;;;;;;14.70;3.88;;;;;;;6.23;67.37;100863.91;5371481;26;20468;-47
2024/04/17 00:28:27;;;;;;;15.65;3.47;;;;;;;6.04;68.47;100880.22;5353757;26;20019;-50
2024/04/17 00:30:53;;;;;;;12.77;2.80;;;;;;;6.14;68.13;100862.72;5365650;26;20004;-52
2024/04/17 00:33:20;;;;;;;13.18;2.75;;;;;;;6.16;67.61;100866.13;5334454;26;20013;-48
2024/04/17 00:35:46;;;;;;;14.05;2.90;;;;;;;6.09;67.46;100863.06;5369343;26;20011;-51
2024/04/17 00:38:11;;;;;;;8.55;2.55;;;;;;;6.11;67.33;100868.25;5365131;26;20333;-50
2024/04/17 00:40:37;;;;;;;9.38;2.80;;;;;;;6.15;66.91;100860.94;5354718;26;20001;-54
2024/04/17 00:43:04;;;;;;;8.70;2.22;;;;;;;5.90;67.11;100867.06;5377757;26;20015;-48
2024/04/17 00:45:33;;;;;;;12.00;2.88;;;;;;;6.08;67.48;100864.00;5380032;26;20015;-50
2024/04/17 00:48:00;;;;;;;10.00;2.88;;;;;;;6.05;67.91;100869.50;5390604;26;20016;-53
2024/04/17 00:50:26;;;;;;;18.48;3.50;;;;;;;6.00;68.25;100865.47;5362714;26;20005;-46
2024/04/17 00:52:55;;;;;;;13.13;2.83;;;;;;;6.12;67.89;100864.66;5369076;26;20000;-50
2024/04/17 00:55:22;;;;;;;9.70;2.60;;;;;;;6.09;67.96;100863.06;5376051;26;20005;-49
2024/04/17 00:57:49;;;;;;;15.73;3.08;;;;;;;6.15;67.44;100868.88;5390785;26;20015;-51
2024/04/17 01:00:18;;;;;;;14.50;3.42;;;;;;;6.09;68.01;100870.16;5348557;26;20399;-48
2024/04/17 01:03:09;;;;;;;11.20;3.13;;;;;;;6.24;67.79;100873.53;5350098;26;20522;-54
2024/04/17 01:05:35;;;;;;;10.30;2.97;;;;;;;6.29;67.76;100866.97;5364811;26;20033;-52
2024/04/17 01:08:02;;;;;;;10.65;3.38;;;;;;;6.27;67.46;100873.31;5356992;26;20000;-49
2024/04/17 01:10:28;;;;;;;11.52;2.78;;;;;;;6.36;67.67;100865.59;5367843;26;20004;-53
2024/04/17 01:12:54;;;;;;;8.00;3.45;;;;;;;6.20;68.33;100864.09;5356202;26;20679;-55
2024/04/17 01:15:21;;;;;;;11.90;2.80;;;;;;;6.26;67.99;100875.09;5370769;26;20004;-47
2024/04/17 01:17:48;;;;;;;8.75;2.83;;;;;;;6.53;68.19;100882.09;5361719;26;20015;-56
2024/04/17 01:20:14;;;;;;;13.32;3.65;;;;;;;6.43;67.49;100880.09;5353310;26;20011;-49
2024/04/17 01:22:40;;;;;;;10.70;2.97;;;;;;;6.27;69.90;100886.53;5368280;26;20011;-47
2024/04/17 01:25:06;;;;;;;11.82;3.13;;;;;;;6.39;71.25;100883.06;5371144;26;20008;-50
2024/04/17 01:27:32;;;;;;;7.85;3.03;;;;;;;6.51;71.12;100868.13;5368904;26;20008;-47
2024/04/17 01:29:57;;;;;;;8.25;2.83;;;;;;;6.61;70.07;100864.69;5352456;26;20012;-55
2024/04/17 01:32:23;;;;;;;11.32;2.90;;;;;;;6.89;69.00;100868.91;5355596;26;20317;-48
2024/04/17 01:34:49;;;;;;;10.10;3.67;;;;;;;7.14;68.46;100863.53;5396514;26;20436;-56
2024/04/17 01:37:15;;;;;;;10.30;2.35;;;;;;;7.00;68.37;100861.03;5395637;26;20497;-50
2024/04/17 01:39:41;;;;;;;8.07;2.28;;;;;;;6.71;69.37;100860.44;5347316;26;20005;-50
2024/04/17 01:42:07;;;;;;;9.07;2.45;;;;;;;7.21;68.36;100867.41;5369241;26;20028;-55
2024/04/17 01:44:33;;;;;;;9.02;2.72;;;;;;;7.27;67.61;100874.94;5369941;26;20015;-54
2024/04/17 01:46:59;;;;;;;9.82;2.17;;;;;;;6.89;70.50;100871.56;5371747;26;20410;-56
2024/04/17 01:49:25;;;;;;;8.80;2.50;;;;;;;6.74;70.17;100859.41;5363406;26;20000;-51
2024/04/17 01:51:51;;;;;;;10.82;2.83;;;;;;;6.83;70.02;100856.09;5365267;26;20058;-52
2024/04/17 01:54:17;;;;;;;11.13;2.58;;;;;;;7.00;70.30;100863.69;5369687;26;20362;-51
2024/04/17 01:56:42;;;;;;;7.05;2.28;;;;;;;7.15;68.88;100857.25;5373926;26;20328;-48
2024/04/17 01:59:09;;;;;;;6.00;2.15;;;;;;;6.93;69.00;100869.53;5372848;26;20004;-52
2024/04/17 02:01:35;;;;;;;7.15;2.40;;;;;;;6.97;70.13;100869.19;5369179;26;20337;-49
2024/04/17 02:04:01;;;;;;;13.05;3.47;;;;;;;6.93;69.47;100858.94;5355914;26;20363;-50
2024/04/17 02:06:27;;;;;;;14.25;2.60;;;;;;;6.98;69.67;100864.75;5369630;26;20139;-48
2024/04/17 02:08:53;;;;;;;6.63;2.13;;;;;;;6.82;70.42;100862.34;5387492;26;20004;-48
2024/04/17 02:11:19;;;;;;;13.15;2.60;;;;;;;6.51;71.63;100855.72;5350936;26;20000;-52
2024/04/17 02:13:44;;;;;;;21.83;5.13;;;;;;;6.82;71.40;100857.06;5370374;26;20452;-54
2024/04/17 02:16:10;;;;;;;8.70;2.58;;;;;;;7.23;69.79;100862.00;5363682;26;20428;-47
2024/04/17 02:18:36;;;;;;;13.98;3.00;;;;;;;7.06;70.33;100860.59;5370287;26;21142;-51
2024/04/17 02:21:02;;;;;;;7.75;2.22;;;;;;;7.21;70.00;100864.75;5367181;26;20024;-50
2024/04/17 02:23:28;;;;;;;9.68;3.00;;;;;;;6.77;71.61;100861.84;5359266;26;20004;-50
2024/04/17 02:25:55;;;;;;;10.23;2.30;;;;;;;6.88;71.94;100857.44;5310593;26;20028;-54
2024/04/17 02:28:21;;;;;;;12.63;2.30;;;;;;;7.07;71.00;100861.44;5368605;26;20004;-46
2024/04/17 02:30:47;;;;;;;7.25;2.10;;;;;;;7.12;70.18;100865.44;5385342;26;20395;-54
2024/04/17 02:33:13;;;;;;;10.07;2.00;;;;;;;6.99;70.63;100869.94;5371630;26;20536;-53
2024/04/17 02:35:40;;;;;;;7.30;2.17;;;;;;;6.95;71.30;100860.50;5384213;26;20004;-53
2024/04/17 02:38:05;;;;;;;5.68;2.35;;;;;;;6.92;70.92;100860.75;5346760;26;20033;-48
2024/04/17 02:40:31;;;;;;;8.35;2.05;;;;;;;7.07;69.92;100856.13;5375309;26;20004;-49
2024/04/17 02:42:57;;;;;;;6.95;1.63;;;;;;;7.28;69.72;100860.69;5367423;26;20012;-50
2024/04/17 02:45:23;;;;;;;10.93;2.05;;;;;;;7.14;69.93;100862.69;5367456;26;20004;-52
2024/04/17 02:47:49;;;;;;;5.22;1.67;;;;;;;7.20;68.73;100863.06;5348302;26;20512;-52
2024/04/17 02:50:14;;;;;;;4.57;2.08;;;;;;;7.24;68.83;100853.06;5359781;26;20032;-52
2024/04/17 02:52:40;;;;;;;5.93;1.80;;;;;;;7.23;68.76;100859.34;5370767;26;20004;-50
2024/04/17 02:55:06;;;;;;;6.50;1.77;;;;;;;7.31;68.55;100866.72;5359305;26;20011;-51
2024/04/17 02:57:32;;;;;;;5.68;2.10;;;;;;;7.25;68.62;100855.63;5364997;26;20004;-53
2024/04/17 02:59:59;;;;;;;7.47;2.10;;;;;;;7.19;69.01;100857.88;5349347;26;19996;-51
2024/04/17 03:02:49;;;;;;;4.18;1.70;;;;;;;7.21;69.24;100859.44;5387485;26;20015;-54
2024/04/17 03:05:15;;;;;;;4.45;1.80;;;;;;;7.25;68.73;100849.47;5347691;26;20004;-52
2024/04/17 03:11:01;;;;;;;5.45;2.10;;;;;;;7.19;69.71;100857.88;5333049;26;20020;-48
2024/04/17 03:13:28;;;;;;;6.38;2.05;;;;;;;7.08;70.15;100857.81;5332533;26;20428;-50
2024/04/17 03:15:54;;;;;;;4.90;1.75;;;;;;;6.99;70.70;100862.00;5319428;26;20006;-48
2024/04/17 03:18:22;;;;;;;5.65;1.77;;;;;;;7.00;70.95;100858.38;5334494;26;20002;-49
2024/04/17 03:20:48;;;;;;;3.03;1.50;;;;;;;6.81;71.86;100860.66;5334764;26;20005;-58
2024/04/17 03:23:14;;;;;;;6.25;1.70;;;;;;;6.71;71.52;100860.44;5304417;26;20005;-48
2024/04/17 03:25:40;;;;;;;8.05;1.67;;;;;;;6.98;72.11;100862.94;5303146;26;20392;-50
2024/04/17 03:28:05;;;;;;;6.22;1.25;;;;;;;6.79;72.22;100859.94;5312654;26;20006;-47
2024/04/17 03:30:31;;;;;;;7.45;1.58;;;;;;;7.08;71.97;100865.75;5323411;26;20001;-53
2024/04/17 03:32:57;;;;;;;3.53;1.30;;;;;;;7.13;71.09;100859.19;5304007;26;19997;-50
2024/04/17 03:35:23;;;;;;;4.15;1.35;;;;;;;7.17;70.69;100855.34;5317921;26;20009;-52
2024/04/17 03:37:49;;;;;;;4.88;1.20;;;;;;;7.32;69.51;100857.81;5335002;26;20383;-53
2024/04/17 03:40:14;;;;;;;3.67;1.30;;;;;;;7.39;69.46;100854.59;5319534;26;20531;-51
2024/04/17 03:42:40;;;;;;;4.97;1.35;;;;;;;6.98;71.11;100860.28;5293898;26;20017;-49
2024/04/17 03:45:06;;;;;;;2.80;1.45;;;;;;;6.96;72.09;100864.84;5332985;26;20011;-54
2024/04/17 03:47:32;;;;;;;4.15;1.02;;;;;;;7.32;71.20;100861.31;5329291;26;20012;-47
2024/04/17 03:50:05;;;;;;;1.85;1.10;;;;;;;7.36;71.16;100862.78;5305369;26;20001;-50
2024/04/17 03:52:31;;;;;;;3.65;1.02;;;;;;;7.22;70.23;100858.50;5333774;26;20019;-48
2024/04/17 03:54:57;;;;;;;3.10;1.02;;;;;;;7.21;71.16;100856.78;5332541;26;20012;-52
2024/04/17 03:57:23;;;;;;;3.35;0.85;;;;;;;7.37;70.72;100853.00;5320365;26;20017;-50
2024/04/17 03:59:49;;;;;;;6.82;1.38;;;;;;;7.44;69.50;100851.59;5334862;26;20021;-53
2024/04/17 04:02:15;;;;;;;4.30;1.02;;;;;;;7.31;70.70;100864.91;5271247;26;20001;-52
2024/04/17 04:04:40;;;;;;;3.20;0.98;;;;;;;7.06;71.60;100868.53;5331150;26;19997;-52
2024/04/17 04:07:06;;;;;;;1.33;0.93;;;;;;;7.01;72.66;100867.19;5330846;26;20001;-50
2024/04/17 04:09:32;;;;;;;2.45;0.93;;;;;;;6.92;72.93;100866.03;5333093;26;20005;-51
2024/04/17 04:11:58;;;;;;;1.00;0.90;;;;;;;7.04;71.98;100867.78;5335787;26;20012;-55
2024/04/17 04:14:24;;;;;;;2.72;0.98;;;;;;;6.79;72.99;100870.53;5302997;26;20071;-54
2024/04/17 04:16:50;;;;;;;4.28;1.08;;;;;;;6.86;72.67;100869.13;5333608;26;19997;-56
2024/04/17 04:19:16;;;;;;;2.33;1.10;;;;;;;6.76;73.41;100862.78;5335152;26;19997;-49
2024/04/17 04:21:42;;;;;;;3.75;1.20;;;;;;;7.16;72.63;100860.75;5302365;26;20365;-52
2024/04/17 04:24:08;;;;;;;3.35;1.15;;;;;;;6.92;73.06;100859.91;5335212;26;20004;-52
2024/04/17 04:26:34;;;;;;;2.17;0.80;;;;;;;7.28;71.67;100858.03;5312497;26;20365;-51
2024/04/17 04:29:00;;;;;;;1.83;0.95;;;;;;;6.91;73.54;100864.34;5312937;26;20005;-51
2024/04/17 04:31:26;;;;;;;3.45;0.90;;;;;;;7.14;73.18;100874.13;5292111;26;20024;-48
2024/04/17 04:33:52;;;;;;;2.83;1.00;;;;;;;7.01;73.76;100872.50;5300490;26;20009;-48
2024/04/17 04:36:17;;;;;;;3.22;0.70;;;;;;;6.97;73.55;100871.00;5318860;26;20439;-48
2024/04/17 04:38:44;;;;;;;2.75;0.90;;;;;;;7.03;72.52;100873.19;5353184;26;19996;-51
2024/04/17 04:41:10;;;;;;;4.30;0.90;;;;;;;6.73;75.59;100870.94;5342913;26;19996;-49
2024/04/17 04:43:37;;;;;;;6.45;1.33;;;;;;;6.70;74.31;100873.78;5306089;26;20000;-49
2024/04/17 04:46:03;;;;;;;2.60;1.00;;;;;;;6.61;75.53;100871.78;5337723;26;20015;-47
2024/04/17 04:48:29;;;;;;;2.25;1.00;;;;;;;6.85;74.11;100876.25;5315806;26;20010;-50
2024/04/17 04:50:54;;;;;;;6.18;1.40;;;;;;;7.03;74.33;100881.16;5327847;26;19998;-52
2024/04/17 04:53:20;;;;;;;4.97;1.30;;;;;;;6.42;75.49;100881.03;5300516;26;19998;-48
2024/04/17 04:56:01;;;;;;;6.07;1.25;;;;;;;7.06;73.63;100881.78;5338434;26;20020;-50
2024/04/17 04:58:27;;;;;;;3.75;1.35;;;;;;;7.11;73.41;100890.25;5327781;26;20402;-55
2024/04/17 05:00:53;;;;;;;3.35;1.48;;;;;;;7.05;73.34;100890.69;5341733;26;20021;-50
2024/04/17 05:03:19;;;;;;;6.90;1.63;;;;;;;7.28;73.66;100892.50;5335330;26;20036;-53
2024/04/17 05:05:45;;;;;;;3.85;1.48;;;;;;;6.97;73.81;100894.84;5328413;26;20016;-48
2024/04/17 05:08:10;;;;;;;3.72;1.33;;;;;;;6.98;74.63;100894.75;5328309;26;20012;-52
2024/04/17 05:10:37;;;;;;;2.20;0.90;;;;;;;6.22;76.45;100892.16;5311548;26;19996;-53
2024/04/17 05:13:03;;;;;;;4.13;1.15;;;;;;;6.90;73.69;100886.50;5350509;26;20417;-49
2024/04/17 05:15:29;;;;;;;0.60;0.60;;;;;;;6.05;75.54;100898.59;5326439;26;20006;-53
2024/04/17 05:17:55;;;;;;;3.13;0.85;;;;;;;6.86;72.08;100891.19;5336826;26;20443;-54
2024/04/17 05:20:22;;;;;;;0.80;0.35;;;;;;;6.75;72.11;100895.53;5346185;26;20004;-53
2024/04/17 05:22:47;;;;;;;2.53;0.40;;;;;;;6.82;71.86;100892.34;5337291;26;20004;-55
2024/04/17 05:25:15;;;;;;;3.13;0.60;;;;;;;6.75;71.38;100893.72;5324557;26;20012;-45
2024/04/17 05:27:41;;;;;;;0.80;0.35;;;;;;;6.60;71.70;100908.03;5317462;26;20010;-50
2024/04/17 05:30:11;;;;;;;2.30;0.57;;;;;;;6.38;72.45;100898.09;5347333;26;20011;-49
2024/04/17 05:32:36;;;;;;;2.05;0.57;;;;;;;6.81;71.41;100905.69;5334663;26;20005;-54
2024/04/17 05:35:02;;;;;;;2.47;0.73;;;;;;;6.58;72.50;100906.44;5336508;26;19996;-50
2024/04/17 05:37:28;;;;;;;4.25;0.63;;;;;;;6.06;71.50;100910.03;5329572;26;20001;-50
2024/04/17 05:39:54;;;;;;;1.92;0.40;;;;;;;6.35;71.57;100910.69;5303439;26;20011;-52
2024/04/17 05:42:20;;;;;;;3.20;0.60;;;;;;;6.15;72.70;100917.34;5362193;26;20098;-53
2024/04/17 05:44:46;;;;;;;2.92;0.98;;;;;;;6.42;72.27;100923.41;5338092;26;20004;-51
2024/04/17 05:47:12;;;;;;;7.00;0.65;;;;;;;6.53;71.33;100916.53;5345098;26;20016;-54
2024/04/17 05:49:38;;;;;;;1.42;0.60;;;;;;;6.62;72.18;100918.50;5327848;26;20473;-52
2024/04/17 05:52:04;;;;;;;4.65;0.80;;;;;;;6.78;71.61;100927.13;5336297;26;20332;-51
2024/04/17 05:54:30;;;;;;;3.92;0.82;;;;;;;6.83;71.57;100931.13;5335927;26;20016;-50
2024/04/17 05:56:55;;;;;;;4.88;0.75;;;;;;;6.80;71.05;100926.03;5337008;26;20005;-53
2024/04/17 05:59:21;;;;;;;3.40;1.05;;;;;;;6.71;72.00;100923.16;5330369;26;20001;-51
2024/04/17 06:01:47;;;;;;;4.75;0.90;;;;;;;7.06;71.49;100929.50;5335653;26;20040;-53
2024/04/17 06:04:13;;;;;;;5.85;0.90;;;;;;;7.38;69.60;100936.91;5335592;26;20019;-52
2024/04/17 06:06:39;;;;;;;2.63;0.60;;;;;;;7.51;69.20;100937.69;5332926;26;20005;-52
2024/04/17 06:09:05;;;;;;;1.73;0.80;;;;;;;7.74;68.60;100930.69;5334396;26;20439;-54
2024/04/17 06:11:31;;;;;;;1.58;0.73;;;;;;;7.77;68.19;100941.91;5332412;26;20012;-52
2024/04/17 06:13:56;;;;;;;2.67;0.73;;;;;;;7.40;69.64;100946.44;5360877;26;20370;-51
2024/04/17 06:16:22;;;;;;;5.43;1.20;;;;;;;7.23;69.96;100946.81;5332913;26;20456;-52
2024/04/17 06:18:48;;;;;;;2.97;0.80;;;;;;;7.52;69.68;100952.66;5336086;26;20209;-48
2024/04/17 06:21:13;;;;;;;7.40;0.90;;;;;;;7.20;69.93;100942.59;5335017;26;20004;-50
2024/04/17 06:23:39;;;;;;;2.50;0.65;;;;;;;7.34;69.53;100943.41;5334806;26;20361;-50
2024/04/17 06:26:05;;;;;;;4.53;0.60;;;;;;;7.32;71.08;100942.66;5320569;26;20333;-52
2024/04/17 06:28:31;;;;;;;2.33;0.80;;;;;;;7.35;70.55;100945.09;5334657;26;20016;-48
2024/04/17 06:30:57;;;;;;;4.78;0.85;;;;;;;6.97;72.30;100947.84;5336224;26;20087;-49
2024/04/17 06:33:23;;;;;;;3.60;0.80;;;;;;;6.93;72.42;100949.88;5293254;26;20001;-53
2024/04/17 06:35:49;;;;;;;4.97;1.05;;;;;;;7.04;71.91;100947.31;5304793;26;20488;-51
2024/04/17 06:38:14;;;;;;;5.25;0.88;;;;;;;6.85;72.57;100947.78;5335563;26;20009;-51
2024/04/17 06:40:40;;;;;;;4.55;1.13;;;;;;;6.70;72.84;100942.66;5334929;26;20078;-48
2024/04/17 06:43:06;;;;;;;5.75;1.05;;;;;;;7.18;72.17;100943.66;5335636;26;20020;-52
2024/04/17 06:45:32;;;;;;;6.47;1.45;;;;;;;6.36;72.78;100938.88;5298675;26;20037;-54
2024/04/17 06:47:57;;;;;;;7.25;0.73;;;;;;;6.08;71.79;100937.25;5299248;26;20014;-53
2024/04/17 06:50:23;;;;;;;6.93;1.20;;;;;;;7.24;68.23;100925.50;5305746;26;19998;-54
2024/04/17 06:52:49;;;;;;;7.35;1.00;;;;;;;7.43;67.17;100924.16;5277898;26;20434;-49
2024/04/17 06:55:15;;;;;;;4.97;1.20;;;;;;;7.57;67.16;100924.81;5275682;26;20001;-48
2024/04/17 06:57:40;;;;;;;10.05;1.98;;;;;;;7.43;67.33;100925.00;5319480;26;20004;-53
2024/04/17 07:00:07;;;;;;;6.47;1.50;;;;;;;7.58;67.32;100930.97;5337869;26;19997;-52
2024/04/17 07:02:33;;;;;;;7.40;1.25;;;;;;;7.76;68.80;100928.78;5324876;26;20000;-47
2024/04/17 07:04:58;;;;;;;8.63;1.67;;;;;;;7.83;68.57;100930.84;5289872;27;20096;-51
2024/04/17 07:07:24;;;;;;;6.35;1.08;;;;;;;7.79;68.89;100931.19;5311674;26;20341;-50
2024/04/17 07:09:50;;;;;;;6.85;1.27;;;;;;;7.61;70.29;100931.63;5298869;26;20037;-54
2024/04/17 07:12:16;;;;;;;6.05;1.50;;;;;;;7.77;68.68;100936.59;5272222;27;20016;-54
2024/04/17 07:14:42;;;;;;;12.18;1.52;;;;;;;7.79;69.11;100939.16;5298087;27;20496;-50
2024/04/17 07:17:08;;;;;;;6.70;1.38;;;;;;;7.92;68.64;100942.56;5302750;26;20024;-53
2024/04/17 07:19:33;;;;;;;6.05;1.80;;;;;;;7.97;68.89;100930.66;5285853;26;20068;-55
2024/04/17 07:21:59;;;;;;;13.70;1.58;;;;;;;7.65;69.20;100937.53;5301981;26;20008;-55
2024/04/17 07:24:25;;;;;;;10.80;3.05;;;;;;;8.15;68.12;100940.88;5296922;26;20005;-50
2024/04/17 07:26:54;;;;;;;7.88;1.30;;;;;;;8.06;67.67;100945.03;5301579;26;20432;-52
2024/04/17 07:29:20;;;;;;;11.23;1.33;;;;;;;8.25;67.77;100947.16;5295089;26;20020;-51
2024/04/17 07:31:48;;;;;;;7.47;1.77;;;;;;;8.47;66.66;100949.88;5299325;26;20757;-51
2024/04/17 07:34:14;;;;;;;12.98;2.13;;;;;;;8.67;65.74;100954.47;5301643;26;20020;-50
2024/04/17 07:36:40;;;;;;;10.20;1.77;;;;;;;8.87;65.62;100957.38;5300131;26;20017;-53
2024/04/17 07:39:06;;;;;;;11.20;1.58;;;;;;;9.01;65.84;100949.16;5292661;26;20020;-50
2024/04/17 07:41:32;;;;;;;8.85;1.83;;;;;;;8.95;65.69;100953.16;5326704;26;20002;-51
2024/04/17 07:43:58;;;;;;;14.00;1.90;;;;;;;9.04;65.82;100952.44;5302185;26;20075;-50
2024/04/17 07:46:23;;;;;;;9.82;1.60;;;;;;;9.15;64.78;100949.75;5301380;26;20002;-51
2024/04/17 07:48:50;;;;;;;4.82;2.10;;;;;;;9.01;64.78;100946.50;5296297;26;20403;-53
2024/04/17 07:51:16;;;;;;;6.32;1.55;;;;;;;9.03;65.32;100941.91;5329181;26;20006;-50
2024/04/17 07:53:42;;;;;;;11.43;1.90;;;;;;;9.17;65.24;100945.16;5295692;26;20408;-50
2024/04/17 07:56:08;;;;;;;6.93;1.50;;;;;;;9.31;64.46;100945.84;5298566;26;20331;-53
2024/04/17 07:58:34;;;;;;;8.05;1.63;;;;;;;9.34;64.64;100940.25;5324829;26;20225;-50
2024/04/17 08:01:00;;;;;;;6.00;1.20;;;;;;;9.35;64.23;100947.28;5301489;26;19997;-51
2024/04/17 08:03:26;;;;;;;7.10;1.67;;;;;;;9.63;63.28;100944.94;5293898;26;19997;-49
2024/04/17 08:05:52;;;;;;;15.48;1.85;;;;;;;9.73;63.50;100944.19;5300574;26;20020;-51
2024/04/17 08:08:18;;;;;;;11.57;1.98;;;;;;;9.99;63.94;100937.53;5291012;26;20001;-52
2024/04/17 08:10:44;;;;;;;14.65;2.05;;;;;;;10.25;64.37;100940.66;5322678;26;20001;-50
2024/04/17 08:13:15;;;;;;;15.73;1.95;;;;;;;10.46;62.33;100945.97;5329476;26;20016;-53
2024/04/17 08:15:48;;;;;;;8.18;1.90;;;;;;;10.18;61.22;100942.16;5332363;26;20969;-52
2024/04/17 08:18:14;;;;;;;9.13;1.45;;;;;;;10.07;61.32;100944.88;5334832;26;20005;-50
2024/04/17 08:20:40;;;;;;;6.93;1.50;;;;;;;10.54;62.12;100935.53;5331544;26;20001;-53
2024/04/17 08:23:06;;;;;;;8.95;1.90;;;;;;;10.76;61.40;100938.84;5334119;26;20460;-55
2024/04/17 08:25:32;;;;;;;9.48;2.28;;;;;;;11.04;60.85;100931.94;5321196;26;20505;-52
2024/04/17 08:27:57;;;;;;;10.63;1.58;;;;;;;11.18;59.99;100931.56;5335911;26;20012;-54
2024/04/17 08:30:23;;;;;;;14.27;2.10;;;;;;;11.03;60.10;100942.75;5287440;26;20017;-53
2024/04/17 08:32:49;;;;;;;8.35;2.08;;;;;;;10.89;60.71;100935.97;5276826;26;20445;-51
2024/04/17 08:35:15;;;;;;;9.05;2.33;;;;;;;11.05;57.60;100940.78;5354952;26;20013;-52
2024/04/17 08:37:41;;;;;;;6.20;1.20;;;;;;;10.45;55.17;100930.94;5322215;26;20366;-52
2024/04/17 08:40:09;;;;;;;10.85;1.90;;;;;;;10.53;52.55;100936.50;5275831;26;20004;-53
2024/04/17 08:42:36;;;;;;;7.78;1.48;;;;;;;10.56;55.10;100937.06;5278797;27;20001;-55
2024/04/17 08:45:07;;;;;;;7.65;1.40;;;;;;;10.90;53.92;100942.16;5319707;26;20041;-46
2024/04/17 08:47:36;;;;;;;9.68;1.80;;;;;;;10.61;53.66;100923.38;5332685;26;20019;-48
2024/04/17 08:50:04;;;;;;;9.38;1.15;;;;;;;10.14;53.12;100936.25;5332840;26;20062;-56
2024/04/17 08:52:30;;;;;;;10.02;1.30;;;;;;;10.16;52.52;100925.44;5331968;26;20325;-53
2024/04/17 08:54:58;;;;;;;12.10;2.20;;;;;;;10.73;54.08;100930.28;5334267;26;20004;-53
2024/04/17 08:57:24;;;;;;;13.73;1.65;;;;;;;10.97;52.38;100927.28;5333457;26;20015;-51
2024/04/17 08:59:50;;;;;;;10.27;1.67;;;;;;;11.20;52.45;100926.94;5332374;26;20001;-52
2024/04/17 09:02:16;;;;;;;7.18;1.45;;;;;;;10.65;53.72;100925.63;5334685;26;20088;-50
2024/04/17 09:04:43;;;;;;;9.55;1.67;;;;;;;10.18;54.58;100928.81;5325489;26;20746;-55
2024/04/17 09:07:10;;;;;;;13.00;2.17;;;;;;;10.34;55.00;100935.41;5288147;26;20331;-50
2024/04/17 09:09:40;;;;;;;11.50;1.73;;;;;;;9.44;56.61;100928.81;5300919;26;20551;-55
2024/04/17 09:12:10;;;;;;;6.93;1.40;;;;;;;8.93;59.08;100938.28;5334215;26;20016;-51
2024/04/17 09:14:38;;;;;;;7.20;1.35;;;;;;;9.67;57.49;100937.53;5331142;26;20012;-57
2024/04/17 09:17:04;;;;;;;11.48;1.42;;;;;;;9.15;57.79;100935.59;5336858;26;20346;-53
2024/04/17 09:19:29;;;;;;;8.68;1.88;;;;;;;9.10;57.38;100940.44;5321758;26;20353;-56
2024/04/17 09:21:55;;;;;;;8.85;2.28;;;;;;;10.01;56.61;100938.25;5335373;26;20009;-52
2024/04/17 09:24:21;;;;;;;9.60;1.90;;;;;;;10.68;58.19;100940.50;5271126;26;20453;-53
2024/04/17 09:26:47;;;;;;;10.07;2.05;;;;;;;10.94;55.91;100939.06;5337363;26;20012;-52
2024/04/17 09:29:17;;;;;;;10.82;1.95;;;;;;;10.96;55.63;100936.28;5338054;26;20020;-55
2024/04/17 09:31:43;;;;;;;7.25;1.45;;;;;;;11.03;54.75;100927.59;5334872;26;21419;-52
2024/04/17 09:34:12;;;;;;;7.65;1.58;;;;;;;11.36;53.14;100933.56;5316109;26;20001;-49
2024/04/17 09:36:45;;;;;;;10.00;1.80;;;;;;;11.46;53.88;100935.25;5304692;26;20013;-47
2024/04/17 09:39:11;;;;;;;11.38;1.80;;;;;;;11.59;53.63;100932.31;5294392;27;20016;-50
2024/04/17 09:41:40;;;;;;;8.20;1.30;;;;;;;11.89;51.00;100926.88;5306251;26;20017;-55
2024/04/17 09:44:08;;;;;;;12.68;1.85;;;;;;;12.43;50.61;100935.22;5328780;26;20016;-52
2024/04/17 09:46:33;;;;;;;7.43;1.33;;;;;;;12.15;49.46;100931.63;5288069;26;20006;-51
2024/04/17 09:49:18;;;;;;;12.50;1.98;;;;;;;12.00;47.18;100931.22;5318506;26;20449;-51
2024/04/17 09:51:46;;;;;;;8.65;1.20;;;;;;;12.37;48.96;100936.66;5321051;26;21716;-55
2024/04/17 09:54:13;;;;;;;8.27;1.50;;;;;;;12.09;44.68;100926.84;5338181;26;19997;-54
2024/04/17 09:56:41;;;;;;;6.18;0.93;;;;;;;11.44;44.08;100926.56;5335335;26;20001;-51
2024/04/17 09:59:11;;;;;;;8.18;2.08;;;;;;;12.37;45.55;100925.97;5335212;26;20015;-54
2024/04/17 10:01:38;;;;;;;4.65;1.17;;;;;;;11.83;43.50;100926.59;5334313;26;20394;-51
2024/04/17 10:04:05;;;;;;;6.97;1.02;;;;;;;12.02;43.02;100931.09;5336390;26;20016;-49
2024/04/17 10:06:34;;;;;;;5.63;1.83;;;;;;;11.90;44.07;100931.25;5307731;26;20002;-54
2024/04/17 10:09:02;;;;;;;5.72;1.10;;;;;;;11.85;43.67;100930.00;5332577;26;20019;-55
2024/04/17 10:11:28;;;;;;;5.38;0.95;;;;;;;12.10;44.16;100931.22;5334343;26;20016;-53
2024/04/17 10:13:56;;;;;;;6.88;1.20;;;;;;;12.13;44.26;100934.44;5320739;26;20002;-52
2024/04/17 10:16:22;;;;;;;4.40;0.80;;;;;;;11.79;42.50;100926.03;5334479;26;20005;-53
2024/04/17 10:18:48;;;;;;;12.68;1.23;;;;;;;11.35;42.78;100931.88;5338776;26;20005;-56
2024/04/17 10:21:22;;;;;;;4.05;1.08;;;;;;;11.58;45.20;100926.13;5335442;26;20005;-53
2024/04/17 10:24:17;;;;;;;6.43;1.08;;;;;;;11.61;45.04;100935.72;5334374;26;20744;-53
2024/04/17 10:26:48;;;;;;;4.22;1.00;;;;;;;11.51;43.07;100929.53;5305268;26;21815;-56
2024/04/17 10:29:16;;;;;;;11.63;1.85;;;;;;;11.83;42.32;100926.59;5336072;26;20001;-51
2024/04/17 10:31:53;;;;;;;7.60;1.02;;;;;;;12.60;42.39;100916.63;5339070;26;20015;-50
2024/04/17 10:34:19;;;;;;;5.90;1.10;;;;;;;12.96;41.98;100922.09;5332995;26;20001;-54
2024/04/17 10:36:52;;;;;;;8.38;0.85;;;;;;;12.89;42.19;100913.00;5334287;26;20005;-50
2024/04/17 10:39:20;;;;;;;8.10;1.20;;;;;;;13.23;43.34;100916.75;5334036;26;20506;-53
2024/04/17 10:41:46;;;;;;;5.03;1.30;;;;;;;12.75;41.70;100917.00;5333698;26;20005;-51
2024/04/17 10:44:13;;;;;;;2.75;1.00;;;;;;;12.42;42.88;100922.84;5297840;26;20017;-54
2024/04/17 10:46:38;;;;;;;4.68;1.20;;;;;;;12.21;40.83;100923.03;5305640;26;20005;-54
2024/04/17 10:49:16;;;;;;;7.07;1.20;;;;;;;12.32;42.65;100925.56;5336154;26;20450;-54
2024/04/17 10:51:43;;;;;;;7.90;1.40;;;;;;;12.86;42.40;100919.50;5307439;26;20005;-52
2024/04/17 10:54:11;;;;;;;8.95;1.40;;;;;;;12.33;42.09;100924.59;5336735;26;20364;-54
2024/04/17 10:56:39;;;;;;;5.65;1.25;;;;;;;12.32;41.61;100929.09;5282410;26;20649;-52
2024/04/17 10:59:05;;;;;;;7.20;1.25;;;;;;;11.61;39.75;100916.19;5336803;26;20008;-51
2024/04/17 11:01:31;;;;;;;6.45;0.90;;;;;;;12.52;39.39;100913.84;5332027;26;20001;-51
2024/04/17 11:03:58;;;;;;;4.50;0.82;;;;;;;12.74;39.11;100913.47;5334103;26;20439;-49
2024/04/17 11:06:24;;;;;;;6.32;0.90;;;;;;;13.03;38.44;100907.16;5332834;26;20074;-56
2024/04/17 11:08:52;;;;;;;4.35;0.80;;;;;;;12.98;38.89;100904.94;5305613;26;20397;-51
2024/04/17 11:11:18;;;;;;;8.10;1.50;;;;;;;13.39;40.30;100910.72;5302658;26;20324;-52
2024/04/17 11:13:44;;;;;;;4.82;1.13;;;;;;;12.55;40.44;100902.81;5333160;26;20012;-55
2024/04/17 11:16:12;;;;;;;5.38;1.00;;;;;;;12.05;40.53;100910.28;5333692;26;20618;-53
2024/04/17 11:18:38;;;;;;;6.85;1.00;;;;;;;12.33;39.35;100914.72;5292876;26;20321;-55
2024/04/17 11:21:04;;;;;;;5.47;1.15;;;;;;;12.75;41.03;100915.16;5331033;26;20012;-51
2024/04/17 11:23:41;;;;;;;5.88;1.10;;;;;;;12.51;41.68;100912.13;5304905;26;20002;-56
2024/04/17 11:26:07;;;;;;;6.63;1.00;;;;;;;12.93;41.79;100917.91;5305071;26;20013;-52
2024/04/17 11:28:33;;;;;;;6.80;1.23;;;;;;;12.99;41.20;100925.34;5334909;26;20001;-55
2024/04/17 11:30:59;;;;;;;7.15;1.23;;;;;;;12.64;40.43;100919.88;5336210;26;20005;-54